< < Back
Terminal Aerodrome Forecast


Current Version              Previous Versions:   1  2  3  4  5  6  7  8  9  

Terminal Aerodrome Forecast

528
FTUS42 KGSP 291624 AAB
TAFAVL
TAF AMD
KAVL 291624Z 2916/3012 18004KT P6SM VCSH BKN035
      TEMPO 2916/2920 3SM SHRA BKN025 OVC050
     FM292100 13003KT P6SM BKN045
     FM292300 00000KT P6SM BKN040=

Latest METAR

783
SAUS70 KWBC 300600 RRH
MTRAVL
METAR KAVL 300554Z AUTO 19003KT 9SM CLR 17/16 A3024 RMK AO2 SLP217
T01670156 10228 20167 58005


USA.gov is the U.S. government's official web portal to all federal, state and local government web resources and services.